Durham, New Hampshire
Current Conditions -  °F | °C
As of 8:58 PM on Saturday 22 Nov 2014 (Local Time) from KPSM Reporting Station
Broken Clouds Broken Clouds  
Wind Chill: 32°   Ceiling: 17000
Heat Index: 40°   Visibility: 10mi
Dew Point: 11°   Wind: 14mph
Humidity: 31%   Direction: 230°SW
Pressure: 30.01"   Gusts: 23mph
Location:  43.13°N, 70.92°W
Report Text: KPSM 230158Z 23012G20KT 10SM SCT035 BKN170 04/M12 A3001 RMK AO2A SLP167 T00421118
Loading
Personal Weather Stations






























Interactive Weather Map New forecast layout! Learn more

10-Day Weather Forecast

Advertisements
Track Severe Weather on mobile